createdAt,value
2023-05-21T00:00:36.209Z,93599.34
2023-05-21T00:01:32.736Z,93610.38
2023-05-21T00:02:30.225Z,93597.31
2023-05-21T00:03:28.498Z,93595.34
2023-05-21T00:04:25.563Z,93589.47
2023-05-21T00:05:22.136Z,93590.25
2023-05-21T00:06:20.851Z,93590.34
2023-05-21T00:07:17.521Z,93585.69
2023-05-21T00:08:14.242Z,93584.09
2023-05-21T00:09:13.007Z,93584.00
2023-05-21T00:10:09.721Z,93579.66
2023-05-21T00:11:06.987Z,93583.84
2023-05-21T00:12:03.762Z,93578.56
2023-05-21T00:13:00.415Z,93574.84
2023-05-21T00:13:57.107Z,93574.00
2023-05-21T00:14:53.768Z,93569.69
2023-05-21T00:15:50.537Z,93570.50
2023-05-21T00:16:47.279Z,93577.97
2023-05-21T00:17:44.214Z,93567.34
2023-05-21T00:18:40.905Z,93565.78
2023-05-21T00:19:37.422Z,93563.63
2023-05-21T00:20:33.996Z,93565.16
2023-05-21T00:21:31.768Z,93558.63
2023-05-21T00:22:28.340Z,93564.78
2023-05-21T00:23:26.314Z,93556.16
2023-05-21T00:24:22.931Z,93562.16
2023-05-21T00:25:19.433Z,93565.16
2023-05-21T00:26:16.115Z,93565.97
2023-05-21T00:27:13.432Z,93561.50
2023-05-21T00:28:09.939Z,93566.94
2023-05-21T00:29:06.513Z,93567.19
2023-05-21T00:30:03.766Z,93560.03
2023-05-21T00:31:00.672Z,93557.91
2023-05-21T00:31:57.306Z,93557.91
2023-05-21T00:32:53.889Z,93564.97
2023-05-21T00:33:50.804Z,93567.81
2023-05-21T00:34:47.394Z,93564.00
2023-05-21T00:35:44.102Z,93567.56
2023-05-21T00:36:40.698Z,93569.50
2023-05-21T00:37:38.200Z,93561.44
2023-05-21T00:38:34.896Z,93561.06
2023-05-21T00:39:31.405Z,93559.88
2023-05-21T00:40:27.935Z,93557.75
2023-05-21T00:41:26.023Z,93567.19
2023-05-21T00:42:27.403Z,93565.72
2023-05-21T00:43:26.609Z,93556.69
2023-05-21T00:44:23.856Z,93564.97
2023-05-21T00:45:20.503Z,93566.13
2023-05-21T00:46:18.321Z,93557.22
2023-05-21T00:47:18.352Z,93558.47
2023-05-21T00:48:14.994Z,93559.19
2023-05-21T00:49:11.740Z,93560.94
2023-05-21T00:50:08.814Z,93562.06
2023-05-21T00:51:06.254Z,93556.63
2023-05-21T00:52:02.821Z,93551.50
2023-05-21T00:52:59.884Z,93557.22
2023-05-21T00:53:56.789Z,93554.28
2023-05-21T00:54:53.662Z,93559.31
2023-05-21T00:55:50.820Z,93545.75
2023-05-21T00:56:47.722Z,93549.00
2023-05-21T00:57:44.309Z,93540.69
2023-05-21T00:58:41.094Z,93545.00
2023-05-21T00:59:37.762Z,93546.66
2023-05-21T01:00:34.907Z,93551.72
2023-05-21T01:01:34.038Z,93542.78
2023-05-21T01:02:34.614Z,93541.25
2023-05-21T01:03:31.259Z,93538.22
2023-05-21T01:04:27.846Z,93544.16
2023-05-21T01:05:24.489Z,93538.88
2023-05-21T01:06:21.035Z,93539.00
2023-05-21T01:07:18.610Z,93542.09
2023-05-21T01:08:15.185Z,93540.34
2023-05-21T01:09:12.012Z,93546.69
2023-05-21T01:10:09.560Z,93541.22
2023-05-21T01:11:07.157Z,93551.56
2023-05-21T01:12:04.252Z,93552.31
2023-05-21T01:13:01.397Z,93549.03
2023-05-21T01:13:58.033Z,93549.41
2023-05-21T01:14:54.618Z,93554.75
2023-05-21T01:15:51.390Z,93551.56
2023-05-21T01:16:49.757Z,93548.81
2023-05-21T01:17:47.136Z,93551.22
2023-05-21T01:18:45.399Z,93547.00
2023-05-21T01:19:44.499Z,93543.22
2023-05-21T01:20:42.590Z,93547.44
2023-05-21T01:21:53.184Z,93551.50
2023-05-21T01:22:53.991Z,93548.81
2023-05-21T01:23:50.748Z,93550.81
2023-05-21T01:24:49.784Z,93552.94
2023-05-21T01:25:47.003Z,93549.84
2023-05-21T01:26:44.300Z,93549.16
2023-05-21T01:27:41.646Z,93544.66
2023-05-21T01:28:38.448Z,93543.25
2023-05-21T01:29:34.995Z,93546.38
2023-05-21T01:30:31.663Z,93543.41
2023-05-21T01:31:31.744Z,93546.63
2023-05-21T01:32:28.401Z,93543.97
2023-05-21T01:33:40.137Z,93544.97
2023-05-21T01:34:51.050Z,93542.78
2023-05-21T01:35:53.155Z,93548.59
2023-05-21T01:36:53.644Z,93552.44
2023-05-21T01:37:55.849Z,93554.81
2023-05-21T01:39:04.818Z,93548.88
2023-05-21T01:40:21.656Z,93543.56
2023-05-21T01:41:19.495Z,93547.88
2023-05-21T01:42:16.900Z,93538.22
2023-05-21T01:43:14.346Z,93534.34
2023-05-21T01:44:11.143Z,93541.38
2023-05-21T01:45:08.573Z,93533.06
2023-05-21T01:46:07.890Z,93537.31
2023-05-21T01:47:05.001Z,93545.47
2023-05-21T01:48:01.628Z,93544.53
2023-05-21T01:48:58.236Z,93543.66
2023-05-21T01:49:55.350Z,93539.28
2023-05-21T01:50:53.036Z,93544.22
2023-05-21T01:51:49.752Z,93540.63
2023-05-21T01:52:52.758Z,93544.31
2023-05-21T01:53:49.262Z,93541.91
2023-05-21T01:54:45.827Z,93541.16
2023-05-21T01:55:42.572Z,93536.84
2023-05-21T01:56:39.222Z,93543.59
2023-05-21T01:57:35.773Z,93541.34
2023-05-21T01:58:32.388Z,93533.75
2023-05-21T01:59:30.080Z,93538.25
2023-05-21T02:00:29.571Z,93544.00
2023-05-21T02:01:27.166Z,93539.03
2023-05-21T02:02:23.742Z,93536.72
2023-05-21T02:03:21.916Z,93537.34
2023-05-21T02:04:18.549Z,93532.81
2023-05-21T02:05:15.106Z,93535.00
2023-05-21T02:06:11.700Z,93532.72
2023-05-21T02:07:08.248Z,93527.91
2023-05-21T02:08:05.522Z,93524.31
2023-05-21T02:09:02.446Z,93528.53
2023-05-21T02:09:58.966Z,93526.47
2023-05-21T02:10:55.710Z,93525.81
2023-05-21T02:11:52.245Z,93520.88
2023-05-21T02:12:48.751Z,93517.41
2023-05-21T02:13:46.244Z,93521.03
2023-05-21T02:14:42.960Z,93513.19
2023-05-21T02:15:40.285Z,93516.00
2023-05-21T02:16:38.521Z,93516.44
2023-05-21T02:17:35.416Z,93508.00
2023-05-21T02:18:31.936Z,93504.75
2023-05-21T02:19:28.565Z,93511.84
2023-05-21T02:20:25.305Z,93500.16
2023-05-21T02:21:21.852Z,93511.31
2023-05-21T02:22:18.353Z,93507.78
2023-05-21T02:23:14.922Z,93509.19
2023-05-21T02:24:11.584Z,93501.50
2023-05-21T02:25:09.033Z,93511.97
2023-05-21T02:26:05.669Z,93506.03
2023-05-21T02:27:02.990Z,93507.78
2023-05-21T02:27:59.580Z,93503.59
2023-05-21T02:28:56.130Z,93502.06
2023-05-21T02:29:52.607Z,93507.81
2023-05-21T02:30:49.197Z,93515.13
2023-05-21T02:31:45.888Z,93514.81
2023-05-21T02:32:43.641Z,93510.19
2023-05-21T02:33:40.975Z,93504.00
2023-05-21T02:34:42.419Z,93510.50
2023-05-21T02:35:39.229Z,93504.69
2023-05-21T02:36:36.163Z,93514.19
2023-05-21T02:37:35.661Z,93504.53
2023-05-21T02:38:32.720Z,93508.84
2023-05-21T02:39:29.348Z,93510.28
2023-05-21T02:40:25.937Z,93514.91
2023-05-21T02:41:23.258Z,93525.34
2023-05-21T02:42:19.786Z,93507.13
2023-05-21T02:43:16.531Z,93505.06
2023-05-21T02:44:13.330Z,93523.00
2023-05-21T02:45:10.419Z,93518.19
2023-05-21T02:46:07.923Z,93520.66
2023-05-21T02:47:04.680Z,93526.88
2023-05-21T02:48:01.464Z,93520.09
2023-05-21T02:48:57.995Z,93511.31
2023-05-21T02:49:54.774Z,93509.16
2023-05-21T02:50:51.484Z,93513.81
2023-05-21T02:51:47.962Z,93516.91
2023-05-21T02:52:44.508Z,93517.72
2023-05-21T02:53:41.021Z,93525.13
2023-05-21T02:54:37.499Z,93518.09
2023-05-21T02:55:34.233Z,93511.41
2023-05-21T02:56:31.006Z,93517.44
2023-05-21T02:57:27.549Z,93525.34
2023-05-21T02:58:25.282Z,93519.13
2023-05-21T02:59:21.753Z,93516.06
2023-05-21T03:00:18.347Z,93520.28
2023-05-21T03:01:14.942Z,93516.66
2023-05-21T03:02:11.930Z,93516.41
2023-05-21T03:03:08.722Z,93515.97
2023-05-21T03:04:05.307Z,93511.66
2023-05-21T03:05:01.913Z,93506.19
2023-05-21T03:05:58.738Z,93510.59
2023-05-21T03:06:57.236Z,93506.69
2023-05-21T03:07:53.817Z,93511.53
2023-05-21T03:08:50.453Z,93514.59
2023-05-21T03:09:47.070Z,93518.72
2023-05-21T03:10:43.566Z,93508.41
2023-05-21T03:11:40.131Z,93431.13
2023-05-21T03:12:36.680Z,93508.56
2023-05-21T03:13:33.255Z,93508.84
2023-05-21T03:14:29.888Z,93505.59
2023-05-21T03:15:26.379Z,93513.28
2023-05-21T03:16:22.983Z,93510.34
2023-05-21T03:17:20.679Z,93506.81
2023-05-21T03:18:17.314Z,93523.84
2023-05-21T03:19:13.976Z,93526.94
2023-05-21T03:20:18.732Z,93520.00
2023-05-21T03:21:15.765Z,93518.13
2023-05-21T03:22:12.390Z,93524.22
2023-05-21T03:23:09.026Z,93527.88
2023-05-21T03:24:05.968Z,93529.00
2023-05-21T03:25:02.846Z,93518.47
2023-05-21T03:25:59.332Z,93511.13
2023-05-21T03:26:55.946Z,93516.66
2023-05-21T03:27:52.754Z,93518.13
2023-05-21T03:28:49.244Z,93519.28
2023-05-21T03:29:46.028Z,93522.25
2023-05-21T03:30:46.307Z,93517.53
2023-05-21T03:31:42.945Z,93511.34
2023-05-21T03:32:41.502Z,93512.16
2023-05-21T03:33:38.108Z,93516.63
2023-05-21T03:34:34.653Z,93526.25
2023-05-21T03:35:31.168Z,93525.50
2023-05-21T03:36:27.737Z,93522.63
2023-05-21T03:37:24.323Z,93524.78
2023-05-21T03:38:20.880Z,93522.56
2023-05-21T03:39:17.484Z,93529.56
2023-05-21T03:40:14.388Z,93518.38
2023-05-21T03:41:11.297Z,93514.16
2023-05-21T03:42:07.855Z,93516.47
2023-05-21T03:43:04.374Z,93525.44
2023-05-21T03:44:00.900Z,93515.66
2023-05-21T03:44:57.452Z,93507.06
2023-05-21T03:45:54.672Z,93516.13
2023-05-21T03:46:51.221Z,93521.50
2023-05-21T03:47:48.941Z,93520.84
2023-05-21T03:48:45.896Z,93517.44
2023-05-21T03:49:42.452Z,93516.06
2023-05-21T03:50:38.920Z,93517.72
2023-05-21T03:51:35.443Z,93512.09
2023-05-21T03:52:31.964Z,93509.50
2023-05-21T03:53:28.434Z,93509.38
2023-05-21T03:54:25.057Z,93517.31
2023-05-21T03:55:21.658Z,93521.13
2023-05-21T03:56:18.193Z,93515.75
2023-05-21T03:57:14.790Z,93517.03
2023-05-21T03:58:11.275Z,93522.44
2023-05-21T03:59:07.782Z,93516.91
2023-05-21T04:00:05.577Z,93512.72
2023-05-21T04:01:02.853Z,93511.66
2023-05-21T04:01:59.551Z,93522.38
2023-05-21T04:02:56.150Z,93518.09
2023-05-21T04:03:53.011Z,93516.56
2023-05-21T04:04:51.791Z,93521.00
2023-05-21T04:05:49.522Z,93525.16
2023-05-21T04:06:46.138Z,93519.13
2023-05-21T04:07:43.028Z,93519.50
2023-05-21T04:08:39.721Z,93520.28
2023-05-21T04:09:36.867Z,93520.72
2023-05-21T04:10:33.928Z,93518.44
2023-05-21T04:11:31.402Z,93514.75
2023-05-21T04:12:27.958Z,93519.41
2023-05-21T04:13:24.484Z,93515.47
2023-05-21T04:14:21.544Z,93516.22
2023-05-21T04:15:20.801Z,93516.50
2023-05-21T04:16:19.243Z,93512.78
2023-05-21T04:17:16.140Z,93518.38
2023-05-21T04:18:13.784Z,93523.50
2023-05-21T04:19:10.515Z,93516.56
2023-05-21T04:20:07.642Z,93521.31
2023-05-21T04:21:04.325Z,93518.56
2023-05-21T04:22:01.132Z,93526.56
2023-05-21T04:22:57.643Z,93524.72
2023-05-21T04:23:54.142Z,93518.84
2023-05-21T04:24:50.695Z,93518.16
2023-05-21T04:25:50.809Z,93517.72
2023-05-21T04:26:48.213Z,93523.31
2023-05-21T04:27:47.774Z,93520.22
2023-05-21T04:28:45.866Z,93523.69
2023-05-21T04:29:42.948Z,93522.13
2023-05-21T04:30:39.455Z,93515.66
2023-05-21T04:31:36.121Z,93521.59
2023-05-21T04:32:34.989Z,93517.72
2023-05-21T04:33:31.737Z,93520.94
2023-05-21T04:34:28.339Z,93525.84
2023-05-21T04:35:24.952Z,93521.66
2023-05-21T04:36:21.502Z,93526.69
2023-05-21T04:37:18.032Z,93520.72
2023-05-21T04:38:19.658Z,93526.66
2023-05-21T04:39:17.115Z,93523.97
2023-05-21T04:40:18.261Z,93526.25
2023-05-21T04:41:15.013Z,93527.25
2023-05-21T04:42:11.616Z,93530.84
2023-05-21T04:43:08.280Z,93529.41
2023-05-21T04:44:08.179Z,93522.81
2023-05-21T04:45:06.432Z,93533.53
2023-05-21T04:46:02.933Z,93533.53
2023-05-21T04:47:00.600Z,93533.63
2023-05-21T04:48:00.753Z,93530.56
2023-05-21T04:48:58.232Z,93538.34
2023-05-21T04:49:54.772Z,93529.16
2023-05-21T04:50:52.092Z,93531.13
2023-05-21T04:51:49.517Z,93532.66
2023-05-21T04:52:46.117Z,93535.09
2023-05-21T04:53:42.669Z,93529.38
2023-05-21T04:54:41.994Z,93533.84
2023-05-21T04:55:40.004Z,93526.47
2023-05-21T04:56:36.621Z,93531.72
2023-05-21T04:57:33.170Z,93524.66
2023-05-21T04:58:29.736Z,93526.00
2023-05-21T04:59:26.416Z,93522.56
2023-05-21T05:00:26.203Z,93526.81
2023-05-21T05:01:29.633Z,93519.00
2023-05-21T05:02:26.248Z,93526.28
2023-05-21T05:03:22.936Z,93527.75
2023-05-21T05:04:19.593Z,93531.34
2023-05-21T05:05:16.072Z,93536.19
2023-05-21T05:06:12.546Z,93527.59
2023-05-21T05:07:09.072Z,93526.91
2023-05-21T05:08:05.777Z,93522.31
2023-05-21T05:09:02.353Z,93528.06
2023-05-21T05:09:58.874Z,93527.69
2023-05-21T05:10:55.423Z,93524.84
2023-05-21T05:11:51.932Z,93530.66
2023-05-21T05:12:48.544Z,93528.75
2023-05-21T05:13:45.047Z,93525.22
2023-05-21T05:14:41.686Z,93523.59
2023-05-21T05:15:38.439Z,93525.06
2023-05-21T05:16:35.674Z,93528.25
2023-05-21T05:17:32.314Z,93524.13
2023-05-21T05:18:29.544Z,93518.38
2023-05-21T05:19:26.822Z,93518.44
2023-05-21T05:20:23.528Z,93518.72
2023-05-21T05:21:22.025Z,93519.03
2023-05-21T05:22:18.571Z,93512.94
2023-05-21T05:23:15.216Z,93519.22
2023-05-21T05:24:11.944Z,93519.38
2023-05-21T05:25:08.740Z,93519.41
2023-05-21T05:26:05.384Z,93516.47
2023-05-21T05:27:01.885Z,93516.84
2023-05-21T05:27:58.469Z,93519.19
2023-05-21T05:28:54.993Z,93518.84
2023-05-21T05:29:51.751Z,93522.38
2023-05-21T05:30:48.315Z,93520.06
2023-05-21T05:31:44.959Z,93517.00
2023-05-21T05:32:41.630Z,93515.84
2023-05-21T05:33:38.302Z,93520.06
2023-05-21T05:34:35.092Z,93518.16
2023-05-21T05:35:31.582Z,93521.53
2023-05-21T05:36:28.181Z,93520.75
2023-05-21T05:37:24.864Z,93525.78
2023-05-21T05:38:21.417Z,93521.97
2023-05-21T05:39:17.961Z,93530.78
2023-05-21T05:40:14.693Z,93542.41
2023-05-21T05:41:11.260Z,93527.38
2023-05-21T05:42:07.810Z,93521.97
2023-05-21T05:43:04.304Z,93527.72
2023-05-21T05:44:00.795Z,93526.97
2023-05-21T05:44:57.365Z,93531.53
2023-05-21T05:45:53.922Z,93529.66
2023-05-21T05:46:50.460Z,93528.91
2023-05-21T05:47:47.017Z,93529.94
2023-05-21T05:48:43.592Z,93524.16
2023-05-21T05:49:40.676Z,93526.06
2023-05-21T05:50:37.201Z,93527.66
2023-05-21T05:51:33.754Z,93528.81
2023-05-21T05:52:30.549Z,93524.25
2023-05-21T05:53:27.159Z,93515.75
2023-05-21T05:54:23.749Z,93526.53
2023-05-21T05:55:22.089Z,93518.81
2023-05-21T05:56:18.677Z,93529.69
2023-05-21T05:57:15.158Z,93523.16
2023-05-21T05:58:11.759Z,93523.22
2023-05-21T05:59:08.238Z,93541.00
2023-05-21T06:00:05.151Z,93521.09
2023-05-21T06:01:02.122Z,93524.25
2023-05-21T06:01:58.608Z,93519.66
2023-05-21T06:02:55.247Z,93519.69
2023-05-21T06:03:52.302Z,93522.78
2023-05-21T06:04:48.900Z,93520.09
2023-05-21T06:05:45.573Z,93518.16
2023-05-21T06:06:42.184Z,93517.41
2023-05-21T06:07:38.761Z,93517.41
2023-05-21T06:08:38.035Z,93523.22
2023-05-21T06:09:34.821Z,93520.53
2023-05-21T06:10:31.421Z,93521.28
2023-05-21T06:11:28.016Z,93518.97
2023-05-21T06:12:25.322Z,93514.00
2023-05-21T06:13:21.839Z,93517.81
2023-05-21T06:14:18.518Z,93522.44
2023-05-21T06:15:15.200Z,93529.72
2023-05-21T06:16:11.788Z,93517.44
2023-05-21T06:17:08.386Z,93511.22
2023-05-21T06:18:04.968Z,93522.41
2023-05-21T06:19:01.602Z,93510.81
2023-05-21T06:19:58.131Z,93505.88
2023-05-21T06:20:54.774Z,93509.34
2023-05-21T06:21:51.391Z,93510.09
2023-05-21T06:22:48.049Z,93507.03
2023-05-21T06:23:44.582Z,93507.03
2023-05-21T06:24:41.109Z,93504.28
2023-05-21T06:25:38.239Z,93514.72
2023-05-21T06:26:35.177Z,93515.53
2023-05-21T06:27:32.169Z,93514.00
2023-05-21T06:28:28.689Z,93512.47
2023-05-21T06:29:25.211Z,93509.25
2023-05-21T06:30:21.830Z,93504.97
2023-05-21T06:31:18.904Z,93510.34
2023-05-21T06:32:15.521Z,93505.47
2023-05-21T06:33:12.800Z,93499.28
2023-05-21T06:34:10.689Z,93507.34
2023-05-21T06:35:07.798Z,93513.06
2023-05-21T06:36:04.443Z,93516.53
2023-05-21T06:37:01.085Z,93510.41
2023-05-21T06:37:57.655Z,93511.22
2023-05-21T06:38:54.218Z,93510.78
2023-05-21T06:39:50.742Z,93511.13
2023-05-21T06:40:47.944Z,93512.22
2023-05-21T06:41:44.437Z,93509.09
2023-05-21T06:42:41.022Z,93503.41
2023-05-21T06:43:37.631Z,93508.44
2023-05-21T06:44:34.175Z,93500.66
2023-05-21T06:45:30.790Z,93498.41
2023-05-21T06:46:27.474Z,93501.91
2023-05-21T06:47:24.287Z,93511.13
2023-05-21T06:48:20.798Z,93508.41
2023-05-21T06:49:17.392Z,93501.91
2023-05-21T06:50:13.925Z,93500.38
2023-05-21T06:51:10.500Z,93492.78
2023-05-21T06:52:07.100Z,93493.56
2023-05-21T06:53:03.992Z,93493.16
2023-05-21T06:54:00.665Z,93490.47
2023-05-21T06:54:57.208Z,93496.22
2023-05-21T06:55:54.036Z,93491.59
2023-05-21T06:56:50.575Z,93486.63
2023-05-21T06:57:47.212Z,93493.88
2023-05-21T06:58:43.853Z,93499.69
2023-05-21T06:59:40.435Z,93492.41
2023-05-21T07:00:37.200Z,93493.53
2023-05-21T07:01:34.540Z,93487.78
2023-05-21T07:02:31.269Z,93494.28
2023-05-21T07:03:28.141Z,93493.19
2023-05-21T07:04:24.863Z,93500.09
2023-05-21T07:05:21.397Z,93486.28
2023-05-21T07:06:18.301Z,93490.47
2023-05-21T07:07:14.927Z,93487.38
2023-05-21T07:08:12.181Z,93487.78
2023-05-21T07:09:08.984Z,93480.78
2023-05-21T07:10:05.839Z,93493.44
2023-05-21T07:11:02.376Z,93488.69
2023-05-21T07:11:58.981Z,93489.47
2023-05-21T07:12:55.515Z,93488.56
2023-05-21T07:13:52.180Z,93496.38
2023-05-21T07:14:48.706Z,93479.75
2023-05-21T07:15:45.518Z,93482.28
2023-05-21T07:16:42.302Z,93488.25
2023-05-21T07:17:38.969Z,93492.34
2023-05-21T07:18:35.471Z,93477.69
2023-05-21T07:19:32.514Z,93473.50
2023-05-21T07:20:29.275Z,93488.75
2023-05-21T07:21:25.775Z,93490.41
2023-05-21T07:22:22.276Z,93487.47
2023-05-21T07:23:18.741Z,93497.19
2023-05-21T07:24:15.594Z,93490.56
2023-05-21T07:25:12.060Z,93484.69
2023-05-21T07:26:10.219Z,93491.72
2023-05-21T07:27:17.781Z,93499.81
2023-05-21T07:28:21.136Z,93495.94
2023-05-21T07:29:17.625Z,93492.84
2023-05-21T07:30:14.392Z,93495.47
2023-05-21T07:31:12.403Z,93501.84
2023-05-21T07:32:09.043Z,93491.53
2023-05-21T07:33:05.791Z,93497.25
2023-05-21T07:34:02.366Z,93495.38
2023-05-21T07:35:01.964Z,93500.44
2023-05-21T07:35:58.588Z,93497.34
2023-05-21T07:36:55.229Z,93502.00
2023-05-21T07:37:51.939Z,93508.38
2023-05-21T07:38:48.480Z,93504.13
2023-05-21T07:39:45.047Z,93501.50
2023-05-21T07:40:41.546Z,93493.34
2023-05-21T07:41:38.137Z,93498.06
2023-05-21T07:42:34.927Z,93507.53
2023-05-21T07:43:31.742Z,93502.84
2023-05-21T07:44:28.399Z,93505.56
2023-05-21T07:45:25.039Z,93506.50
2023-05-21T07:46:21.570Z,93502.50
2023-05-21T07:47:18.296Z,93503.75
2023-05-21T07:48:14.838Z,93496.69
2023-05-21T07:49:16.716Z,93501.38
2023-05-21T07:50:14.105Z,93503.13
2023-05-21T07:51:11.588Z,93509.06
2023-05-21T07:52:08.261Z,93511.16
2023-05-21T07:53:04.867Z,93506.75
2023-05-21T07:54:01.598Z,93506.06
2023-05-21T07:54:58.186Z,93509.81
2023-05-21T07:55:54.657Z,93512.19
2023-05-21T07:56:51.200Z,93515.72
2023-05-21T07:57:47.711Z,93520.53
2023-05-21T07:58:45.995Z,93518.16
2023-05-21T07:59:42.721Z,93517.13
2023-05-21T08:00:43.361Z,93510.81
2023-05-21T08:01:41.084Z,93518.38
2023-05-21T08:02:37.690Z,93436.25
2023-05-21T08:03:34.570Z,93521.44
2023-05-21T08:04:31.620Z,93516.53
2023-05-21T08:05:28.243Z,93522.38
2023-05-21T08:06:24.799Z,93522.31
2023-05-21T08:07:21.985Z,93526.56
2023-05-21T08:08:18.911Z,93528.44
2023-05-21T08:09:15.515Z,93526.81
2023-05-21T08:10:12.071Z,93521.94
2023-05-21T08:11:08.674Z,93525.69
2023-05-21T08:12:05.351Z,93530.94
2023-05-21T08:13:01.864Z,93528.38
2023-05-21T08:13:58.460Z,93528.41
2023-05-21T08:14:54.973Z,93525.16
2023-05-21T08:15:53.563Z,93527.81
2023-05-21T08:16:50.403Z,93532.38
2023-05-21T08:17:46.963Z,93525.88
2023-05-21T08:18:43.506Z,93532.53
2023-05-21T08:19:40.354Z,93535.00
2023-05-21T08:20:37.040Z,93525.09
2023-05-21T08:21:34.639Z,93528.47
2023-05-21T08:22:31.140Z,93529.56
2023-05-21T08:23:27.768Z,93531.72
2023-05-21T08:25:20.947Z,93530.44
2023-05-21T08:26:17.548Z,93516.28
2023-05-21T08:27:16.200Z,93532.44
2023-05-21T08:28:12.732Z,93527.09
2023-05-21T08:29:09.390Z,93525.56
2023-05-21T08:30:06.211Z,93528.03
2023-05-21T08:31:02.871Z,93520.88
2023-05-21T08:31:59.376Z,93523.81
2023-05-21T08:32:56.135Z,93526.06
2023-05-21T08:33:53.609Z,93532.53
2023-05-21T08:34:50.246Z,93523.31
2023-05-21T08:35:46.769Z,93520.47
2023-05-21T08:36:43.401Z,93527.72
2023-05-21T08:37:39.928Z,93527.50
2023-05-21T08:38:36.588Z,93523.72
2023-05-21T08:39:33.198Z,93516.59
2023-05-21T08:40:30.927Z,93520.47
2023-05-21T08:41:27.970Z,93523.97
2023-05-21T08:43:32.338Z,93521.78
2023-05-21T08:44:30.796Z,93523.38
2023-05-21T08:45:27.761Z,93528.63
2023-05-21T08:46:25.244Z,93526.50
2023-05-21T08:47:23.948Z,93521.69
2023-05-21T08:48:22.445Z,93522.09
2023-05-21T08:49:24.538Z,93513.56
2023-05-21T08:50:24.308Z,93515.84
2023-05-21T08:51:21.218Z,93517.38
2023-05-21T08:52:18.281Z,93517.00
2023-05-21T08:53:23.910Z,93533.31
2023-05-21T08:54:24.431Z,93520.91
2023-05-21T08:55:22.334Z,93524.91
2023-05-21T08:56:18.823Z,93516.69
2023-05-21T08:57:15.568Z,93515.00
2023-05-21T08:58:13.720Z,93518.63
2023-05-21T08:59:10.207Z,93516.44
2023-05-21T09:00:07.409Z,93522.78
2023-05-21T09:01:05.079Z,93522.66
2023-05-21T09:02:02.179Z,93518.50
2023-05-21T09:03:01.269Z,93528.88
2023-05-21T09:04:05.000Z,93520.94
2023-05-21T09:05:09.826Z,93524.53
2023-05-21T09:06:09.290Z,93532.19
2023-05-21T09:07:07.013Z,93524.41
2023-05-21T09:08:06.808Z,93518.56
2023-05-21T09:09:06.663Z,93514.03
2023-05-21T09:10:06.072Z,93527.59
2023-05-21T09:11:05.375Z,93510.72
2023-05-21T09:12:01.986Z,93515.31
2023-05-21T09:12:58.792Z,93512.47
2023-05-21T09:13:55.702Z,93517.25
2023-05-21T09:14:52.428Z,93515.72
2023-05-21T09:15:49.006Z,93523.78
2023-05-21T09:16:48.340Z,93503.19
2023-05-21T09:17:50.902Z,93512.91
2023-05-21T09:18:47.449Z,93515.47
2023-05-21T09:20:04.895Z,93531.72
2023-05-21T09:21:21.380Z,93517.03
2023-05-21T09:22:18.077Z,93504.22
2023-05-21T09:23:17.309Z,93523.34
2023-05-21T09:24:14.210Z,93504.38
2023-05-21T09:25:11.797Z,93514.78
2023-05-21T09:26:11.380Z,93507.38
2023-05-21T09:27:08.101Z,93507.16
2023-05-21T09:28:11.205Z,93505.38
2023-05-21T09:29:07.743Z,93504.19
2023-05-21T09:30:05.116Z,93505.94
2023-05-21T09:31:03.293Z,93495.69
2023-05-21T09:32:05.871Z,93504.09
2023-05-21T09:33:03.393Z,93507.84
2023-05-21T09:34:00.232Z,93505.00
2023-05-21T09:34:56.766Z,93508.88
2023-05-21T09:35:53.358Z,93508.38
2023-05-21T09:36:50.008Z,93508.13
2023-05-21T09:37:50.591Z,93497.53
2023-05-21T09:38:52.105Z,93509.47
2023-05-21T09:39:48.962Z,93486.97
2023-05-21T09:40:46.699Z,93496.72
2023-05-21T09:41:43.268Z,93517.25
2023-05-21T09:42:40.184Z,93505.69
2023-05-21T09:43:37.149Z,93497.41
2023-05-21T09:44:34.796Z,93500.66
2023-05-21T09:45:31.364Z,93494.03
2023-05-21T09:46:28.114Z,93502.47
2023-05-21T09:47:24.727Z,93492.41
2023-05-21T09:48:37.924Z,93506.25
2023-05-21T09:49:36.973Z,93501.69
2023-05-21T09:50:36.415Z,93498.28
2023-05-21T09:51:33.243Z,93496.34
2023-05-21T09:52:30.536Z,93480.03
2023-05-21T09:53:29.160Z,93496.53
2023-05-21T09:54:26.504Z,93496.09
2023-05-21T09:55:23.935Z,93494.28
2023-05-21T09:56:22.515Z,93492.06
2023-05-21T09:57:25.663Z,93499.56
2023-05-21T09:58:22.481Z,93507.38
2023-05-21T09:59:19.395Z,93489.25
2023-05-21T10:00:20.168Z,93485.59
2023-05-21T10:01:16.990Z,93491.34
2023-05-21T10:02:19.119Z,93490.44
2023-05-21T10:03:17.158Z,93492.78
2023-05-21T10:04:14.098Z,93489.94
2023-05-21T10:05:12.116Z,93492.19
2023-05-21T10:06:12.291Z,93490.63
2023-05-21T10:07:09.058Z,93474.81
2023-05-21T10:08:09.042Z,93500.28
2023-05-21T10:09:10.746Z,93491.50
2023-05-21T10:10:08.081Z,93496.31
2023-05-21T10:11:05.666Z,93489.25
2023-05-21T10:12:02.495Z,93494.41
2023-05-21T10:13:09.210Z,93485.47
2023-05-21T10:14:07.489Z,93490.28
2023-05-21T10:15:04.879Z,93491.69
2023-05-21T10:16:02.788Z,93489.69
2023-05-21T10:17:00.834Z,93492.81
2023-05-21T10:17:57.760Z,93480.34
2023-05-21T10:18:54.513Z,93489.69
2023-05-21T10:19:51.390Z,93497.50
2023-05-21T10:20:48.246Z,93501.50
2023-05-21T10:21:45.927Z,93488.94
2023-05-21T10:22:42.591Z,93492.31
2023-05-21T10:23:39.549Z,93463.59
2023-05-21T10:24:36.931Z,93488.22
2023-05-21T10:25:33.626Z,93482.94
2023-05-21T10:26:30.180Z,93481.00
2023-05-21T10:27:31.374Z,93462.91
2023-05-21T10:28:29.389Z,93470.66
2023-05-21T10:29:26.097Z,93483.31
2023-05-21T10:30:23.522Z,93465.28
2023-05-21T10:31:20.177Z,93458.34
2023-05-21T10:32:17.160Z,93474.63
2023-05-21T10:33:16.645Z,93458.06
2023-05-21T10:34:13.900Z,93465.03
2023-05-21T10:35:11.773Z,93479.16
2023-05-21T10:36:08.389Z,93475.47
2023-05-21T10:37:07.979Z,93463.94
2023-05-21T10:38:05.051Z,93462.56
2023-05-21T10:39:02.043Z,93471.22
2023-05-21T10:39:58.626Z,93460.00
2023-05-21T10:40:55.813Z,93471.06
2023-05-21T10:42:14.041Z,93467.31
2023-05-21T10:43:25.706Z,93469.88
2023-05-21T10:44:30.117Z,93469.63
2023-05-21T10:45:38.959Z,93468.00
2023-05-21T10:46:53.772Z,93461.81
2023-05-21T10:47:54.502Z,93465.53
2023-05-21T10:49:09.812Z,93469.72
2023-05-21T10:50:06.406Z,93476.75
2023-05-21T10:51:14.971Z,93465.28
2023-05-21T10:52:17.324Z,93464.03
2023-05-21T10:53:17.038Z,93478.38
2023-05-21T10:54:32.276Z,93480.56
2023-05-21T10:55:43.214Z,93452.41
2023-05-21T10:56:43.361Z,93482.53
2023-05-21T10:57:55.532Z,93470.69
2023-05-21T10:59:03.085Z,93459.66
2023-05-21T11:00:00.217Z,93464.44
2023-05-21T11:00:57.363Z,93463.56
2023-05-21T11:01:54.257Z,93468.53
2023-05-21T11:02:53.130Z,93474.09
2023-05-21T11:03:50.479Z,93471.84
2023-05-21T11:04:49.439Z,93467.84
2023-05-21T11:05:52.968Z,93459.81
2023-05-21T11:06:49.617Z,93461.91
2023-05-21T11:07:58.803Z,93459.09
2023-05-21T11:08:55.937Z,93457.72
2023-05-21T11:09:52.759Z,93455.81
2023-05-21T11:10:55.903Z,93450.31
2023-05-21T11:11:53.735Z,93447.00
2023-05-21T11:13:07.352Z,93456.31
2023-05-21T11:14:23.789Z,93450.47
2023-05-21T11:15:20.532Z,93448.28
2023-05-21T11:16:17.587Z,93448.06
2023-05-21T11:17:17.172Z,93456.22
2023-05-21T11:18:14.146Z,93446.75
2023-05-21T11:19:17.011Z,93434.94
2023-05-21T11:20:17.300Z,93439.13
2023-05-21T11:21:14.847Z,93436.66